Startpagina
METAR-TAF:

METAR-TAF

Vliegvelden :

Luchthaven Ambouli Internationaal

Djibouti, Djibouti

breedte: 11-33N, lengte: 043-10E, hoogte: 49 m

Actueel weer

Dit bericht is 2 uur en het 37 minuten geleden gemaakt, om 10:00 UTC
Wind 8 kt uit het oostnoordoosten
Temperatuur 31°C
Vochtigheid 63%
Druk 1014 hPa
Zicht 10 km of meer
Weinig wolken op 2300 ft

METAR: HDAM 161000Z 07008KT 9999 FEW023 31/23 Q1014

Tijdstip: 15:37 (12:37 UTC)

Verwachting

Dit bericht is 1 uur en het 37 minuten geleden gemaakt, om 11:00 UTC
Verwachting geldig van 16 om 12 UTC tot 17 om 12 UTC
Wind 12 kt uit het oosten
Zicht 10 km of meer
Verspreide wolken op 2300 ft
Wijzigt naar
van 16 om 15 UTC tot 16 om 18 UTC
Wind 5 kt uit variabele richting
Weinig wolken op 2000 ft
Wijzigt naar
van 17 om 00 UTC tot 17 om 06 UTC
Wind kt uit het noorden
Verspreide wolken op 2000 ft

TAF: HDAM 161100Z 1612/1712 08012KT 9999 SCT023 BECMG 1615/1618 VRB05KT FEW020 BECMG 1700/1706 00000KT SCT020

Waarnemingen en weersverwachtingen van meer dan 4000 vliegvelden (METAR en TAF).

De beschikbare stations zijn de gele en rode punten op de kaart.

Ga met uw muis naar het station om de naam te zien.

Klik dan om waarnemingen en weersverwachtingen te zien.

kaart wijzigen: klik op de groene knoppen met een zwart kruis om in te zoomen, op de groene knop met een streepje om uit te zoomen of op de groene pijlen voor aangrenzende kaarten.


METAR-TAF: